• Join FlightAware (Why Join?)
  • Login
  • US Flag 
07:07PM EDT


 

Airport Tracker/Info


-or-


 

Live Flight TrackerFlight Track Log ✈ FIN666 ✈ 24-Mar-2014 ✈ EKCH / CPH - EFHK / HEL

Flight Track Log - Related Links

Times and Time Zones

All times are in EDT time to prevent confusion due to time zone crossing. See the FIN666 flight status page for this flight to view local times or setup timezone preferences in your user account.

Time Position Orientation Groundspeed Altitude Reporting Facility
EDT Latitude Longitude Course Direction KTS MPH feet Rate Location/Type
08:35AM 55.8420 13.1192 49° Northeast  Level Estimated
08:36AM 55.9164 13.2747 50° Northeast  Level Estimated
08:37AM 55.9905 13.4309 50° Northeast  Level Estimated
08:38AM 56.0666 13.5923 50° Northeast  Level Estimated
08:39AM 56.1425 13.7544 50° Northeast  Level Estimated
08:40AM 56.2181 13.9170 50° Northeast  Level Estimated
08:41AM 56.2936 14.0803 50° Northeast  Level Estimated
08:42AM 56.3688 14.2443 50° Northeast  Level Estimated
08:43AM 56.4439 14.4089 50° Northeast  Level Estimated
08:44AM 56.5187 14.5742 51° Northeast  Level Estimated
08:45AM 56.5933 14.7401 51° Northeast  Level Estimated
08:46AM 56.6676 14.9067 51° Northeast  Level Estimated
08:47AM 56.7417 15.0739 51° Northeast  Level Estimated
08:48AM 56.8157 15.2418 51° Northeast  Level Estimated
08:49AM 56.8894 15.4103 51° Northeast  Level Estimated
08:50AM 56.9628 15.5795 51° Northeast  Level Estimated
08:51AM 57.0360 15.7494 52° Northeast  Level Estimated
08:52AM 57.1091 15.9200 52° Northeast  Level Estimated
08:53AM 57.1818 16.0912 52° Northeast  Level Estimated
08:54AM 57.2543 16.2631 52° Northeast  Level Estimated
08:55AM 57.3266 16.4357 52° Northeast  Level Estimated
08:56AM 57.3987 16.6089 52° Northeast  Level Estimated
08:57AM 57.4705 16.7829 52° Northeast  Level Estimated
08:58AM 57.5421 16.9575 53° Northeast  Level Estimated
08:59AM 57.6135 17.1328 53° Northeast  Level Estimated
09:00AM 57.6846 17.3088 53° Northeast  Level Estimated
09:01AM 57.7554 17.4855 53° Northeast  Level Estimated
09:02AM 57.8260 17.6629 53° Northeast  Level Estimated
09:03AM 57.8964 17.8410 53° Northeast  Level Estimated
09:04AM 57.9665 18.0197 53° Northeast  Level Estimated
09:05AM 58.0363 18.1992 54° Northeast  Level Estimated
09:06AM 58.1059 18.3794 54° Northeast  Level Estimated
09:07AM 58.1753 18.5602 54° Northeast  Level Estimated
09:08AM 58.2444 18.7418 54° Northeast  Level Estimated
09:09AM 58.3132 18.9241 54° Northeast  Level Estimated
09:10AM 58.3818 19.1071 54° Northeast  Level Estimated
09:11AM 58.4501 19.2908 55° Northeast  Level Estimated
09:12AM 58.5181 19.4753 55° Northeast  Level Estimated
09:13AM 58.5859 19.6604 55° Northeast  Level Estimated
09:14AM 58.6534 19.8463 55° Northeast  Level Estimated
09:15AM 58.7207 20.0328 55° Northeast  Level Estimated
09:16AM 58.7876 20.2201 55° Northeast  Level Estimated
09:17AM 58.8543 20.4081 55° Northeast  Level Estimated
09:18AM 58.9208 20.5969 56° Northeast  Level Estimated
09:19AM 58.9869 20.7864 56° Northeast  Level Estimated
09:20AM 59.0528 20.9765 56° Northeast  Level Estimated
09:21AM 59.1184 21.1675 56° Northeast  Level Estimated
09:22AM 59.1837 21.3591 56° Northeast  Level Estimated
09:23AM 59.2487 21.5515 56° Northeast  Level Estimated
09:24AM 59.3135 21.7446 57° Northeast  Level Estimated
09:25AM 59.3779 21.9385 57° Northeast  Level Estimated
09:26AM 59.4421 22.1331 57° Northeast  Level Estimated
09:27AM 59.5060 22.3284 57° Northeast  Level Estimated
09:28AM 59.5696 22.5245 57° Northeast  Level Estimated
09:29AM 59.6329 22.7213 57° Northeast  Level Estimated
09:30AM 59.6959 22.9189 58° Northeast  Level Estimated
09:31AM 59.7585 23.1172 58° Northeast  Level Estimated
09:32AM 59.8209 23.3162 58° Northeast  Level Estimated
09:33AM 59.8830 23.5160 58° Northeast  Level Estimated
09:34AM 59.9448 23.7165 58° Northeast  Level Estimated
09:35AM 60.0063 23.9178 59° Northeast  Level Estimated
09:36AM 60.0675 24.1198 59° Northeast  Level Estimated
09:37AM 60.1284 24.3226 59° Northeast  Level Estimated
09:38AM 60.1889 24.5261 59° Northeast  Level Estimated
09:39AM 60.2492 24.7304 59° Northeast  Level Estimated
09:40AM 60.3091 24.9354 59° Northeast  Level Estimated
09:41AM 60.3172 24.9633 60° Northeast  Level Estimated
09:42AM 60.3172 24.9633 North  Level Estimated
09:43AM 60.3172 24.9633 North  Level Estimated
09:44AM 60.3172 24.9633 North  Level Estimated
09:45AM 60.3172 24.9633 North  Level Estimated
09:46AM 60.3172 24.9633 North  Level Estimated
09:47AM 60.3172 24.9633 North  Level Estimated
09:48AM 60.3172 24.9633 North  Level Estimated
09:49AM 60.3172 24.9633 North  Level Estimated
09:50AM 60.3172 24.9633 North  Level Estimated
09:51AM 60.3172 24.9633 North  Level Estimated
09:52AM 60.3172 24.9633 North  Level Estimated